createdAt,value
2019-05-21T00:00:46.805Z,76149.34
2019-05-21T00:03:12.880Z,76156.34
2019-05-21T00:05:38.953Z,76155.34
2019-05-21T00:08:05.003Z,76158.35
2019-05-21T00:10:30.945Z,76169.36
2019-05-21T00:12:56.911Z,76166.36
2019-05-21T00:15:22.975Z,76169.36
2019-05-21T00:17:48.931Z,76169.36
2019-05-21T00:20:15.198Z,76169.36
2019-05-21T00:22:41.187Z,76172.36
2019-05-21T00:25:07.328Z,76171.36
2019-05-21T00:27:36.056Z,76173.36
2019-05-21T00:30:20.769Z,76174.36
2019-05-21T00:33:05.675Z,76178.36
2019-05-21T00:35:53.541Z,76171.36
2019-05-21T00:38:38.345Z,76169.36
2019-05-21T00:41:23.145Z,76173.36
2019-05-21T00:43:51.140Z,76176.36
2019-05-21T00:46:17.205Z,76178.36
2019-05-21T00:48:43.246Z,76180.36
2019-05-21T00:51:09.233Z,76181.36
2019-05-21T00:53:35.265Z,76178.36
2019-05-21T00:56:01.317Z,76183.36
2019-05-21T00:58:27.375Z,76182.36
2019-05-21T01:00:53.648Z,76180.36
2019-05-21T01:03:19.633Z,76184.37
2019-05-21T01:05:45.607Z,76180.36
2019-05-21T01:08:11.865Z,76185.37
2019-05-21T01:10:37.945Z,76182.36
2019-05-21T01:13:03.831Z,76185.37
2019-05-21T01:15:29.764Z,76191.38
2019-05-21T01:17:55.735Z,76186.37
2019-05-21T01:20:22.306Z,76183.36
2019-05-21T01:22:48.283Z,76185.37
2019-05-21T01:25:14.316Z,76185.37
2019-05-21T01:27:40.374Z,76176.36
2019-05-21T01:30:06.423Z,76181.36
2019-05-21T01:32:32.775Z,76179.36
2019-05-21T01:34:58.833Z,76179.36
2019-05-21T01:37:24.875Z,76179.36
2019-05-21T01:39:50.928Z,76180.36
2019-05-21T01:42:16.974Z,76179.36
2019-05-21T01:44:43.028Z,76178.36
2019-05-21T01:47:08.971Z,76182.36
2019-05-21T01:49:35.327Z,76184.37
2019-05-21T01:52:01.681Z,76186.37
2019-05-21T01:54:27.731Z,76186.37
2019-05-21T01:56:54.087Z,76190.37
2019-05-21T01:59:20.135Z,76191.38
2019-05-21T02:01:46.082Z,76193.38
2019-05-21T02:04:12.036Z,76192.38
2019-05-21T02:06:38.180Z,76190.37
2019-05-21T02:09:04.973Z,76185.37
2019-05-21T02:11:30.994Z,76182.36
2019-05-21T02:13:56.883Z,76184.37
2019-05-21T02:16:23.137Z,76188.37
2019-05-21T02:18:49.081Z,76188.37
2019-05-21T02:21:15.036Z,76196.38
2019-05-21T02:23:41.088Z,76189.37
2019-05-21T02:26:07.136Z,76195.38
2019-05-21T02:28:33.697Z,76195.38
2019-05-21T02:30:59.742Z,76194.38
2019-05-21T02:33:25.791Z,76195.38
2019-05-21T02:35:54.724Z,76204.38
2019-05-21T02:38:19.535Z,76208.38
2019-05-21T02:40:45.727Z,76205.38
2019-05-21T02:43:11.754Z,76205.38
2019-05-21T02:45:37.802Z,76212.38
2019-05-21T02:48:06.937Z,76211.38
2019-05-21T02:50:32.883Z,76214.38
2019-05-21T02:52:58.847Z,76216.38
2019-05-21T02:55:24.819Z,76212.38
2019-05-21T02:57:50.766Z,76217.39
2019-05-21T03:00:38.752Z,76227.39
2019-05-21T03:03:06.638Z,76220.39
2019-05-21T03:05:32.694Z,76228.39
2019-05-21T03:07:58.739Z,76233.40
2019-05-21T03:10:25.814Z,76230.39
2019-05-21T03:12:51.869Z,76230.39
2019-05-21T03:15:17.919Z,76230.39
2019-05-21T03:17:43.967Z,76230.39
2019-05-21T03:20:10.532Z,76232.40
2019-05-21T03:22:36.577Z,76244.41
2019-05-21T03:25:06.117Z,76242.41
2019-05-21T03:27:32.060Z,76240.41
2019-05-21T03:29:58.007Z,76242.41
2019-05-21T03:32:24.071Z,76246.41
2019-05-21T03:34:50.117Z,76251.41
2019-05-21T03:37:16.155Z,76251.41
2019-05-21T03:39:42.204Z,76254.41
2019-05-21T03:42:08.253Z,76259.41
2019-05-21T03:44:34.512Z,76260.41
2019-05-21T03:47:00.702Z,76256.41
2019-05-21T03:49:26.945Z,76252.41
2019-05-21T03:51:53.207Z,76253.41
2019-05-21T03:54:19.471Z,76254.41
2019-05-21T03:56:45.738Z,76250.41
2019-05-21T03:59:11.993Z,76245.41
2019-05-21T04:01:38.248Z,76247.41
2019-05-21T04:04:04.298Z,76246.41
2019-05-21T04:06:30.373Z,76249.41
2019-05-21T04:08:56.452Z,76250.41
2019-05-21T04:11:22.748Z,76258.41
2019-05-21T04:13:48.699Z,76253.41
2019-05-21T04:16:25.613Z,76252.41
2019-05-21T04:19:05.816Z,76251.41
2019-05-21T04:21:31.860Z,76252.41
2019-05-21T04:23:57.933Z,76248.41
2019-05-21T04:26:23.881Z,76253.41
2019-05-21T04:28:49.936Z,76254.41
2019-05-21T04:31:15.986Z,76250.41
2019-05-21T04:33:42.044Z,76245.41
2019-05-21T04:36:08.086Z,76251.41
2019-05-21T04:38:34.146Z,76253.41
2019-05-21T04:41:00.077Z,76254.41
2019-05-21T04:43:25.953Z,76252.41
2019-05-21T04:45:51.880Z,76259.41
2019-05-21T04:48:17.828Z,76261.41
2019-05-21T04:50:44.742Z,76257.41
2019-05-21T04:53:12.026Z,76258.41
2019-05-21T04:55:39.116Z,76259.41
2019-05-21T04:58:05.532Z,76257.41
2019-05-21T05:00:32.392Z,76261.41
2019-05-21T05:02:59.095Z,76263.41
2019-05-21T05:05:25.932Z,76262.41
2019-05-21T05:07:52.233Z,76259.41
2019-05-21T05:10:18.731Z,76261.41
2019-05-21T05:12:44.762Z,76257.41
2019-05-21T05:15:10.837Z,76252.41
2019-05-21T05:17:36.824Z,76251.41
2019-05-21T05:20:03.949Z,76252.41
2019-05-21T05:22:30.001Z,76252.41
2019-05-21T05:24:56.166Z,76251.41
2019-05-21T05:27:22.220Z,76252.41
2019-05-21T05:29:48.280Z,76249.41
2019-05-21T05:32:14.229Z,76249.41
2019-05-21T05:34:40.280Z,76250.41
2019-05-21T05:37:06.329Z,76245.41
2019-05-21T05:39:32.373Z,76243.41
2019-05-21T05:41:58.424Z,76247.41
2019-05-21T05:44:24.483Z,76245.41
2019-05-21T05:46:50.763Z,76250.41
2019-05-21T05:49:21.521Z,76250.41
2019-05-21T05:51:47.471Z,76248.41
2019-05-21T05:54:13.455Z,76248.41
2019-05-21T05:56:39.499Z,76253.41
2019-05-21T05:59:05.578Z,76254.41
2019-05-21T06:01:32.785Z,76250.41
2019-05-21T06:03:58.704Z,76249.41
2019-05-21T06:06:24.652Z,76246.41
2019-05-21T06:08:50.702Z,76249.41
2019-05-21T06:11:16.756Z,76250.41
2019-05-21T06:13:42.819Z,76251.41
2019-05-21T06:16:08.870Z,76250.41
2019-05-21T06:18:35.598Z,76246.41
2019-05-21T06:21:01.997Z,76245.41
2019-05-21T06:23:28.045Z,76239.41
2019-05-21T06:25:54.096Z,76245.41
2019-05-21T06:28:20.147Z,76246.41
2019-05-21T06:30:46.504Z,76246.41
2019-05-21T06:33:12.554Z,76248.41
2019-05-21T06:35:38.606Z,76251.41
2019-05-21T06:38:17.186Z,76252.41
2019-05-21T06:40:32.554Z,76252.41
2019-05-21T06:42:58.614Z,76251.41
2019-05-21T06:45:24.586Z,76243.41
2019-05-21T06:47:50.610Z,76248.41
2019-05-21T06:50:16.675Z,76244.41
2019-05-21T06:52:42.804Z,76238.40
2019-05-21T06:55:08.977Z,76241.41
2019-05-21T06:57:34.870Z,76240.41
2019-05-21T07:00:01.298Z,76246.41
2019-05-21T07:02:27.358Z,76251.41
2019-05-21T07:04:53.408Z,76251.41
2019-05-21T07:07:19.764Z,76252.41
2019-05-21T07:09:45.916Z,76252.41
2019-05-21T07:12:12.319Z,76255.41
2019-05-21T07:14:38.327Z,76250.41
2019-05-21T07:17:04.371Z,76250.41
2019-05-21T07:19:30.731Z,76257.41
2019-05-21T07:22:11.573Z,76252.41
2019-05-21T07:24:28.080Z,76255.41
2019-05-21T07:26:52.291Z,76256.41
2019-05-21T07:29:18.211Z,76254.41
2019-05-21T07:31:44.160Z,76260.41
2019-05-21T07:34:10.207Z,76256.41
2019-05-21T07:36:36.267Z,76255.41
2019-05-21T07:39:03.869Z,76260.41
2019-05-21T07:41:29.760Z,76263.41
2019-05-21T07:43:55.771Z,76260.41
2019-05-21T07:46:21.749Z,76261.41
2019-05-21T07:48:47.787Z,76257.41
2019-05-21T07:51:13.932Z,76256.41
2019-05-21T07:53:39.989Z,76255.41
2019-05-21T07:56:05.917Z,76261.41
2019-05-21T07:58:31.859Z,76262.41
2019-05-21T08:01:00.947Z,76258.41
2019-05-21T08:03:25.622Z,76260.41
2019-05-21T08:05:51.545Z,76256.41
2019-05-21T08:08:17.388Z,76258.41
2019-05-21T08:10:43.256Z,76256.41
2019-05-21T08:13:09.283Z,76255.41
2019-05-21T08:15:35.211Z,76258.41
2019-05-21T08:18:01.083Z,76261.41
2019-05-21T08:20:27.041Z,76262.41
2019-05-21T08:22:53.104Z,76264.41
2019-05-21T08:25:19.167Z,76262.41
2019-05-21T08:27:45.110Z,76266.42
2019-05-21T08:30:11.071Z,76265.42
2019-05-21T08:32:37.543Z,76268.42
2019-05-21T08:35:04.419Z,76267.42
2019-05-21T08:37:30.455Z,76274.42
2019-05-21T08:39:56.507Z,76276.42
2019-05-21T08:42:22.557Z,76271.42
2019-05-21T08:44:48.633Z,76277.42
2019-05-21T08:47:14.681Z,76274.42
2019-05-21T08:49:44.087Z,76274.42
2019-05-21T08:52:08.530Z,76275.42
2019-05-21T08:54:47.326Z,76274.42
2019-05-21T08:57:13.303Z,76275.42
2019-05-21T08:59:39.296Z,76276.42
2019-05-21T09:02:05.758Z,76280.42
2019-05-21T09:04:45.257Z,76283.42
2019-05-21T09:06:59.690Z,76280.42
2019-05-21T09:09:25.675Z,76285.43
2019-05-21T09:11:51.709Z,76290.43
2019-05-21T09:14:17.763Z,76288.43
2019-05-21T09:16:43.817Z,76282.42
2019-05-21T09:19:09.857Z,76286.43
2019-05-21T09:21:35.907Z,76284.43
2019-05-21T09:24:01.958Z,76282.42
2019-05-21T09:26:27.900Z,76282.42
2019-05-21T09:28:53.848Z,76282.42
2019-05-21T09:31:19.908Z,76287.43
2019-05-21T09:33:46.191Z,76282.42
2019-05-21T09:36:12.639Z,76282.42
2019-05-21T09:38:38.688Z,76286.43
2019-05-21T09:41:04.737Z,76285.43
2019-05-21T09:43:30.680Z,76282.42
2019-05-21T09:45:56.730Z,76286.43
2019-05-21T09:48:23.007Z,76284.43
2019-05-21T09:50:49.033Z,76290.43
2019-05-21T09:53:15.082Z,76291.44
2019-05-21T09:55:41.452Z,76295.44
2019-05-21T09:58:11.927Z,76290.43
2019-05-21T10:00:48.812Z,76291.44
2019-05-21T10:03:16.706Z,76295.44
2019-05-21T10:05:42.676Z,76297.44
2019-05-21T10:08:08.712Z,76297.44
2019-05-21T10:10:34.764Z,76300.44
2019-05-21T10:13:00.808Z,76302.44
2019-05-21T10:15:26.865Z,76303.44
2019-05-21T10:17:52.921Z,76298.44
2019-05-21T10:20:18.978Z,76298.44
2019-05-21T10:22:45.019Z,76300.44
2019-05-21T10:25:11.070Z,76304.44
2019-05-21T10:27:37.119Z,76300.44
2019-05-21T10:30:06.857Z,76300.44
2019-05-21T10:32:34.190Z,76294.44
2019-05-21T10:35:00.608Z,76293.44
2019-05-21T10:37:26.664Z,76294.44
2019-05-21T10:39:53.032Z,76296.44
2019-05-21T10:42:19.098Z,76294.44
2019-05-21T10:44:45.143Z,76297.44
2019-05-21T10:47:15.401Z,76296.44
2019-05-21T10:49:39.108Z,76294.44
2019-05-21T10:52:05.260Z,76291.44
2019-05-21T10:54:31.323Z,76292.44
2019-05-21T10:56:57.382Z,76289.43
2019-05-21T10:59:23.335Z,76294.44
2019-05-21T11:01:54.302Z,76293.44
2019-05-21T11:04:31.427Z,76295.44
2019-05-21T11:06:57.309Z,76296.44
2019-05-21T11:09:24.239Z,76295.44
2019-05-21T11:11:50.187Z,76296.44
2019-05-21T11:14:16.238Z,76299.44
2019-05-21T11:16:42.286Z,76298.44
2019-05-21T11:19:08.338Z,76299.44
2019-05-21T11:21:34.324Z,76301.44
2019-05-21T11:24:00.338Z,76298.44
2019-05-21T11:26:26.380Z,76300.44
2019-05-21T11:28:52.452Z,76295.44
2019-05-21T11:31:18.500Z,76301.44
2019-05-21T11:33:44.560Z,76301.44
2019-05-21T11:36:10.723Z,76302.44
2019-05-21T11:38:39.842Z,76302.44
2019-05-21T11:41:04.311Z,76303.44
2019-05-21T11:43:30.323Z,76310.45
2019-05-21T11:45:56.371Z,76306.44
2019-05-21T11:48:22.331Z,76314.45
2019-05-21T11:50:48.381Z,76311.45
2019-05-21T11:53:14.431Z,76318.45
2019-05-21T11:55:40.485Z,76314.45
2019-05-21T11:58:06.638Z,76314.45
2019-05-21T12:00:34.197Z,76317.45
2019-05-21T12:03:00.288Z,76314.45
2019-05-21T12:05:26.351Z,76313.45
2019-05-21T12:07:52.422Z,76316.45
2019-05-21T12:10:18.347Z,76316.45
2019-05-21T12:12:44.620Z,76313.45
2019-05-21T12:15:10.574Z,76314.45
2019-05-21T12:17:36.628Z,76311.45
2019-05-21T12:20:05.862Z,76315.45
2019-05-21T12:22:31.910Z,76317.45
2019-05-21T12:24:57.861Z,76319.45
2019-05-21T12:27:23.911Z,76316.45
2019-05-21T12:29:49.958Z,76314.45
2019-05-21T12:32:16.007Z,76318.45
2019-05-21T12:34:42.473Z,76315.45
2019-05-21T12:37:08.520Z,76311.45
2019-05-21T12:39:34.583Z,76310.45
2019-05-21T12:42:00.476Z,76309.44
2019-05-21T12:44:26.498Z,76309.44
2019-05-21T12:46:52.548Z,76314.45
2019-05-21T12:49:18.909Z,76309.44
2019-05-21T12:51:44.965Z,76309.44
2019-05-21T12:54:11.020Z,76312.45
2019-05-21T12:56:40.627Z,76318.45
2019-05-21T12:59:04.767Z,76318.45
2019-05-21T13:01:30.916Z,76326.45
2019-05-21T13:03:56.900Z,76323.45
2019-05-21T13:06:22.852Z,76325.45
2019-05-21T13:08:48.891Z,76324.45
2019-05-21T13:11:14.928Z,76328.45
2019-05-21T13:13:40.986Z,76328.45
2019-05-21T13:16:07.350Z,76331.46
2019-05-21T13:18:36.093Z,76326.45
2019-05-21T13:21:02.114Z,76325.45
2019-05-21T13:23:28.171Z,76326.45
2019-05-21T13:25:54.336Z,76324.45
2019-05-21T13:28:20.385Z,76322.45
2019-05-21T13:30:46.442Z,76327.45
2019-05-21T13:33:12.701Z,76327.45
2019-05-21T13:35:38.645Z,76331.46
2019-05-21T13:38:04.696Z,76328.45
2019-05-21T13:40:32.171Z,76328.45
2019-05-21T13:42:58.220Z,76319.45
2019-05-21T13:45:24.270Z,76326.45
2019-05-21T13:47:50.245Z,76320.45
2019-05-21T13:50:16.334Z,76323.45
2019-05-21T13:52:42.316Z,76320.45
2019-05-21T13:55:08.481Z,76318.45
2019-05-21T13:57:34.928Z,76317.45
2019-05-21T14:00:00.971Z,76316.45
2019-05-21T14:02:27.238Z,76308.44
2019-05-21T14:04:53.229Z,76313.45
2019-05-21T14:07:19.166Z,76312.45
2019-05-21T14:09:45.126Z,76312.45
2019-05-21T14:12:11.892Z,76314.45
2019-05-21T14:14:37.941Z,76318.45
2019-05-21T14:17:04.016Z,76316.45
2019-05-21T14:19:30.042Z,76311.45
2019-05-21T14:21:56.085Z,76308.44
2019-05-21T14:24:22.152Z,76310.45
2019-05-21T14:26:48.183Z,76307.44
2019-05-21T14:29:14.157Z,76304.44
2019-05-21T14:31:40.200Z,76312.45
2019-05-21T14:34:06.653Z,76306.44
2019-05-21T14:36:32.802Z,76311.45
2019-05-21T14:38:58.861Z,76310.45
2019-05-21T14:41:24.793Z,76312.45
2019-05-21T14:43:50.691Z,76316.45
2019-05-21T14:46:16.814Z,76315.45
2019-05-21T14:48:42.864Z,76315.45
2019-05-21T14:51:12.813Z,76313.45
2019-05-21T14:53:36.628Z,76308.44
2019-05-21T14:56:02.660Z,76311.45
2019-05-21T14:58:28.708Z,76317.45
2019-05-21T15:00:54.760Z,76317.45
2019-05-21T15:03:25.298Z,76312.45
2019-05-21T15:05:48.522Z,76315.45
2019-05-21T15:08:14.598Z,76316.45
2019-05-21T15:10:48.639Z,76309.44
2019-05-21T15:13:08.367Z,76312.45
2019-05-21T15:15:34.407Z,76312.45
2019-05-21T15:18:00.763Z,76312.45
2019-05-21T15:20:37.975Z,76312.45
2019-05-21T15:23:04.026Z,76310.45
2019-05-21T15:25:30.011Z,76312.45
2019-05-21T15:27:56.030Z,76302.44
2019-05-21T15:30:22.179Z,76304.44
2019-05-21T15:32:48.559Z,76304.44
2019-05-21T15:35:14.630Z,76298.44
2019-05-21T15:37:44.275Z,76304.44
2019-05-21T15:40:08.280Z,76302.44
2019-05-21T15:42:34.350Z,76301.44
2019-05-21T15:45:00.392Z,76301.44
2019-05-21T15:47:26.436Z,76301.44
2019-05-21T15:49:52.492Z,76299.44
2019-05-21T15:52:18.556Z,76304.44
2019-05-21T15:54:45.526Z,76305.44
2019-05-21T15:57:11.986Z,76308.44
2019-05-21T15:59:38.475Z,76300.44
2019-05-21T16:02:04.718Z,76306.44
2019-05-21T16:04:31.449Z,76309.44
2019-05-21T16:06:57.940Z,76303.44
2019-05-21T16:09:23.889Z,76307.44
2019-05-21T16:11:50.518Z,76305.44
2019-05-21T16:14:18.444Z,76301.44
2019-05-21T16:16:45.027Z,76304.44
2019-05-21T16:19:11.079Z,76307.44
2019-05-21T16:21:37.614Z,76308.44
2019-05-21T16:24:06.886Z,76317.45
2019-05-21T16:26:33.055Z,76318.45
2019-05-21T16:28:59.081Z,76313.45
2019-05-21T16:31:25.028Z,76317.45
2019-05-21T16:33:50.891Z,76316.45
2019-05-21T16:36:16.937Z,76322.45
2019-05-21T16:38:42.998Z,76320.45
2019-05-21T16:41:09.047Z,76319.45
2019-05-21T16:43:35.122Z,76322.45
2019-05-21T16:46:01.052Z,76325.45
2019-05-21T16:48:27.102Z,76332.46
2019-05-21T16:50:53.386Z,76330.46
2019-05-21T16:53:19.661Z,76333.46
2019-05-21T16:55:45.664Z,76330.46
2019-05-21T16:58:11.709Z,76333.46
2019-05-21T17:00:37.758Z,76332.46
2019-05-21T17:03:07.015Z,76336.46
2019-05-21T17:05:36.198Z,76334.46
2019-05-21T17:08:02.797Z,76341.47
2019-05-21T17:10:28.959Z,76340.47
2019-05-21T17:12:55.728Z,76346.47
2019-05-21T17:15:22.437Z,76349.47
2019-05-21T17:17:49.291Z,76354.47
2019-05-21T17:20:16.000Z,76350.47
2019-05-21T17:22:41.996Z,76354.47
2019-05-21T17:25:08.064Z,76354.47
2019-05-21T17:27:34.302Z,76355.48
2019-05-21T17:30:00.962Z,76357.48
2019-05-21T17:32:27.540Z,76356.48
2019-05-21T17:34:54.207Z,76364.48
2019-05-21T17:37:20.973Z,76361.48
2019-05-21T17:39:47.924Z,76357.48
2019-05-21T17:42:16.040Z,76360.48
2019-05-21T17:44:42.413Z,76361.48
2019-05-21T17:47:08.453Z,76365.48
2019-05-21T17:49:34.511Z,76358.48
2019-05-21T17:52:00.556Z,76356.48
2019-05-21T17:54:26.621Z,76348.47
2019-05-21T17:56:52.673Z,76346.47
2019-05-21T17:59:20.531Z,76340.47
2019-05-21T18:01:46.520Z,76336.46
2019-05-21T18:04:12.876Z,76336.46
2019-05-21T18:06:39.108Z,76336.46
2019-05-21T18:09:05.899Z,76340.47
2019-05-21T18:11:32.358Z,76343.47
2019-05-21T18:13:58.604Z,76345.47
2019-05-21T18:16:25.068Z,76348.47
2019-05-21T18:18:51.113Z,76350.47
2019-05-21T18:21:17.367Z,76356.48
2019-05-21T18:23:43.832Z,76351.47
2019-05-21T18:26:09.889Z,76362.48
2019-05-21T18:28:36.247Z,76360.48
2019-05-21T18:31:02.424Z,76363.48
2019-05-21T18:33:28.557Z,76364.48
2019-05-21T18:35:54.621Z,76368.48
2019-05-21T18:38:20.674Z,76375.48
2019-05-21T18:40:46.725Z,76377.48
2019-05-21T18:43:12.777Z,76376.48
2019-05-21T18:45:39.051Z,76386.50
2019-05-21T18:48:05.102Z,76386.50
2019-05-21T18:50:36.195Z,76390.50
2019-05-21T18:52:59.136Z,76394.50
2019-05-21T18:55:25.186Z,76404.51
2019-05-21T18:57:51.235Z,76412.52
2019-05-21T19:00:17.182Z,76416.52
2019-05-21T19:02:43.451Z,76418.52
2019-05-21T19:05:10.038Z,76424.52
2019-05-21T19:07:36.097Z,76426.52
2019-05-21T19:10:04.728Z,76430.53
2019-05-21T19:12:37.872Z,76432.53
2019-05-21T19:14:59.114Z,76434.53
2019-05-21T19:17:35.249Z,76433.53
2019-05-21T19:19:52.883Z,76435.53
2019-05-21T19:22:18.941Z,76436.53
2019-05-21T19:24:44.919Z,76438.53
2019-05-21T19:27:10.977Z,76437.53
2019-05-21T19:29:37.167Z,76441.53
2019-05-21T19:32:05.506Z,76446.53
2019-05-21T19:34:31.869Z,76452.54
2019-05-21T19:36:57.965Z,76447.53
2019-05-21T19:39:24.236Z,76450.54
2019-05-21T19:41:50.211Z,76453.54
2019-05-21T19:44:16.333Z,76459.55
2019-05-21T19:46:42.438Z,76463.55
2019-05-21T19:49:08.610Z,76462.55
2019-05-21T19:51:35.131Z,76464.55
2019-05-21T19:54:01.509Z,76470.55
2019-05-21T19:56:27.567Z,76469.55
2019-05-21T19:58:53.663Z,76474.55
2019-05-21T20:01:20.036Z,76475.55
2019-05-21T20:03:46.110Z,76475.55
2019-05-21T20:06:12.904Z,76475.55
2019-05-21T20:08:38.942Z,76476.55
2019-05-21T20:11:06.043Z,76473.55
2019-05-21T20:13:33.038Z,76470.55
2019-05-21T20:16:01.161Z,76469.55
2019-05-21T20:18:27.167Z,76470.55
2019-05-21T20:20:53.351Z,76471.55
2019-05-21T20:23:21.254Z,76466.55
2019-05-21T20:25:56.581Z,76456.55
2019-05-21T20:28:17.301Z,76456.55
2019-05-21T20:30:45.641Z,76461.55
2019-05-21T20:33:13.902Z,76466.55
2019-05-21T20:35:42.038Z,76461.55
2019-05-21T20:38:10.092Z,76466.55
2019-05-21T20:40:36.271Z,76472.55
2019-05-21T20:43:03.071Z,76474.55
2019-05-21T20:45:29.514Z,76476.55
2019-05-21T20:47:56.700Z,76478.56
2019-05-21T20:50:23.074Z,76485.56
2019-05-21T20:52:49.861Z,76484.56
2019-05-21T20:55:16.580Z,76487.56
2019-05-21T20:57:43.555Z,76486.56
2019-05-21T21:00:10.540Z,76499.57
2019-05-21T21:02:38.137Z,76497.57
2019-05-21T21:05:05.159Z,76499.57
2019-05-21T21:07:31.538Z,76498.57
2019-05-21T21:09:58.005Z,76496.57
2019-05-21T21:12:24.170Z,76499.57
2019-05-21T21:14:51.225Z,76498.57
2019-05-21T21:17:18.666Z,76501.58
2019-05-21T21:19:45.133Z,76494.56
2019-05-21T21:22:11.115Z,76498.57
2019-05-21T21:24:37.994Z,76500.57
2019-05-21T21:27:04.579Z,76502.58
2019-05-21T21:29:30.635Z,76503.58
2019-05-21T21:31:56.708Z,76504.58
2019-05-21T21:34:23.423Z,76505.58
2019-05-21T21:36:53.170Z,76502.58
2019-05-21T21:39:17.631Z,76508.58
2019-05-21T21:41:43.895Z,76507.58
2019-05-21T21:44:09.847Z,76509.58
2019-05-21T21:46:36.512Z,76510.58
2019-05-21T21:49:03.412Z,76515.59
2019-05-21T21:51:30.057Z,76522.59
2019-05-21T21:53:56.010Z,76524.59
2019-05-21T21:56:22.388Z,76518.59
2019-05-21T21:58:48.833Z,76519.59
2019-05-21T22:01:18.673Z,76522.59
2019-05-21T22:03:44.892Z,76517.59
2019-05-21T22:06:11.592Z,76515.59
2019-05-21T22:08:37.991Z,76526.59
2019-05-21T22:11:05.357Z,76526.59
2019-05-21T22:13:31.299Z,76528.59
2019-05-21T22:15:58.161Z,76530.59
2019-05-21T22:18:24.312Z,76534.59
2019-05-21T22:20:51.207Z,76534.59
2019-05-21T22:23:18.271Z,76536.59
2019-05-21T22:25:44.322Z,76541.60
2019-05-21T22:28:10.290Z,76542.60
2019-05-21T22:30:36.728Z,76535.59
2019-05-21T22:33:02.773Z,76542.60
2019-05-21T22:35:28.825Z,76548.61
2019-05-21T22:37:54.886Z,76549.61
2019-05-21T22:40:20.929Z,76540.60
2019-05-21T22:42:46.977Z,76540.60
2019-05-21T22:45:13.137Z,76540.60
2019-05-21T22:47:39.179Z,76541.60
2019-05-21T22:50:05.741Z,76542.60
2019-05-21T22:52:32.195Z,76534.59
2019-05-21T22:54:58.245Z,76533.59
2019-05-21T22:57:26.191Z,76535.59
2019-05-21T22:59:51.982Z,76527.59
2019-05-21T23:02:19.772Z,76530.59
2019-05-21T23:04:45.719Z,76530.59
2019-05-21T23:07:12.329Z,76537.60
2019-05-21T23:09:38.343Z,76541.60
2019-05-21T23:12:04.697Z,76540.60
2019-05-21T23:14:30.841Z,76543.61
2019-05-21T23:16:57.095Z,76546.61
2019-05-21T23:19:24.333Z,76552.61
2019-05-21T23:21:51.355Z,76554.61
2019-05-21T23:24:18.646Z,76551.61
2019-05-21T23:26:45.016Z,76554.61
2019-05-21T23:29:11.488Z,76555.61
2019-05-21T23:31:37.960Z,76564.62
2019-05-21T23:34:04.840Z,76556.61
2019-05-21T23:36:31.295Z,76553.61
2019-05-21T23:38:57.363Z,76546.61
2019-05-21T23:41:24.638Z,76549.61
2019-05-21T23:43:50.688Z,76548.61
2019-05-21T23:46:17.147Z,76546.61
2019-05-21T23:48:43.709Z,76546.61
2019-05-21T23:51:09.693Z,76549.61
2019-05-21T23:53:36.344Z,76551.61
2019-05-21T23:56:02.492Z,76552.61
2019-05-21T23:58:28.556Z,76552.61
